Time;durP1;ratioP1;P1;durP2;ratioP2;P2;SDS_P1;SDS_P2;PMS_P1;PMS_P2;Temp;Humidity;BMP_temperature;BMP_pressure;BME280_temperature;BME280_humidity;BME280_pressure;Samples;Min_cycle;Max_cycle;Signal;HPM_P1;HPM_P2
2022/05/24 00:00:46;;;;;;;15.88;9.90;;;15.40;95.70;;;;;;4976104;28;20030;-76
2022/05/24 00:03:13;;;;;;;13.32;9.93;;;15.40;95.80;;;;;;4988730;28;20105;-76
2022/05/24 00:05:39;;;;;;;20.05;10.35;;;15.40;95.90;;;;;;4966688;28;20049;-76
2022/05/24 00:08:09;;;;;;;11.32;9.80;;;15.40;96.00;;;;;;4969585;28;20483;-77
2022/05/24 00:10:41;;;;;;;13.30;10.73;;;15.50;96.20;;;;;;4985305;28;20256;-76
2022/05/24 00:13:10;;;;;;;15.82;10.80;;;15.40;96.20;;;;;;4988680;28;20477;-76
2022/05/24 00:15:46;;;;;;;15.55;11.45;;;15.40;96.30;;;;;;4994279;28;20532;-76
2022/05/24 00:18:22;;;;;;;16.80;10.60;;;15.50;96.50;;;;;;4992999;28;20065;-76
2022/05/24 00:21:00;;;;;;;16.98;11.13;;;15.50;96.60;;;;;;4982299;28;20065;-76
2022/05/24 00:23:33;;;;;;;15.40;11.23;;;15.50;96.70;;;;;;4980569;28;20320;-76
2022/05/24 00:26:06;;;;;;;15.02;11.70;;;15.50;96.60;;;;;;4992055;28;20484;-76
2022/05/24 00:28:39;;;;;;;14.20;11.90;;;15.50;96.70;;;;;;4970322;28;20040;-76
2022/05/24 00:31:24;;;;;;;13.70;10.98;;;15.60;96.70;;;;;;4981491;28;20038;-76
2022/05/24 00:34:04;;;;;;;17.13;12.02;;;15.50;96.70;;;;;;4992760;28;20068;-76
2022/05/24 00:36:37;;;;;;;15.85;11.85;;;15.50;96.80;;;;;;4994293;28;20104;-76
2022/05/24 00:39:05;;;;;;;13.85;11.70;;;15.50;96.80;;;;;;4986850;28;20065;-76
2022/05/24 00:41:42;;;;;;;18.40;11.68;;;15.50;96.80;;;;;;4985637;28;20503;-76
2022/05/24 00:44:34;;;;;;;17.50;11.95;;;15.60;96.80;;;;;;4963992;28;20483;-76
2022/05/24 00:47:40;;;;;;;13.25;11.40;;;15.50;96.90;;;;;;4976975;28;20404;-76
2022/05/24 00:50:19;;;;;;;16.63;10.98;;;15.60;96.90;;;;;;4901090;29;20059;-76
2022/05/24 00:53:10;;;;;;;13.40;11.23;;;15.60;96.90;;;;;;4887784;29;20044;-76
2022/05/24 00:55:46;;;;;;;17.02;12.70;;;15.60;96.90;;;;;;4905716;29;20055;-76
2022/05/24 00:58:23;;;;;;;17.10;13.00;;;15.60;97.10;;;;;;4888479;29;20472;-76
2022/05/24 01:01:18;;;;;;;19.67;12.27;;;15.70;97.10;;;;;;4950459;28;20051;-76
2022/05/24 01:03:44;;;;;;;13.38;11.88;;;15.70;97.20;;;;;;4957925;28;20039;-76
2022/05/24 01:06:11;;;;;;;13.65;11.55;;;15.70;97.20;;;;;;4937819;28;20043;-77
2022/05/24 01:08:37;;;;;;;15.23;12.02;;;15.80;97.30;;;;;;4944307;28;20026;-76
2022/05/24 01:11:12;;;;;;;11.98;9.13;;;15.80;97.30;;;;;;4978195;28;20536;-77
2022/05/24 01:13:41;;;;;;;9.90;7.75;;;15.70;97.10;;;;;;4957772;28;20460;-77
2022/05/24 01:16:13;;;;;;;8.90;5.72;;;15.60;97.00;;;;;;4977360;28;20189;-77
2022/05/24 01:18:39;;;;;;;6.55;4.55;;;15.40;96.50;;;;;;4971927;28;20023;-77
2022/05/24 01:21:10;;;;;;;5.30;3.55;;;15.30;96.40;;;;;;4957073;28;20093;-77
2022/05/24 01:23:50;;;;;;;;;;;15.00;95.90;;;;;;4958630;28;20049;-77
2022/05/24 01:26:45;;;;;;;8.85;4.75;;;15.00;96.10;;;;;;4958457;28;19910;-77
2022/05/24 01:29:12;;;;;;;8.90;5.93;;;15.00;96.30;;;;;;4953285;28;20315;-77
2022/05/24 01:37:31;;;;;;;8.88;6.63;;;14.70;96.80;;;;;;4970701;28;20111;-77
2022/05/24 01:40:04;;;;;;;8.00;6.00;;;14.60;96.80;;;;;;4974102;28;20043;-77
2022/05/24 01:42:32;;;;;;;11.63;6.53;;;14.60;96.60;;;;;;4991216;28;20138;-77
2022/05/24 01:45:35;;;;;;;8.43;6.85;;;14.60;96.60;;;;;;4973765;28;20023;-78
2022/05/24 01:48:25;;;;;;;10.43;6.70;;;14.50;96.50;;;;;;4980651;28;20030;-77
2022/05/24 01:50:58;;;;;;;10.00;7.43;;;14.40;96.10;;;;;;4968937;28;20041;-77
2022/05/24 01:53:36;;;;;;;9.82;7.32;;;14.40;96.20;;;;;;4974751;28;20034;-77
2022/05/24 01:56:15;;;;;;;10.25;6.75;;;14.50;96.10;;;;;;4971493;28;20051;-78
2022/05/24 01:58:45;;;;;;;9.27;7.63;;;14.40;96.10;;;;;;4980580;28;20113;-77
2022/05/24 02:02:07;;;;;;;13.52;8.40;;;14.30;96.30;;;;;;4972758;28;20050;-77
2022/05/24 02:04:45;;;;;;;11.45;7.93;;;14.10;95.80;;;;;;4971655;28;20098;-77
2022/05/24 02:07:28;;;;;;;10.70;8.27;;;14.10;95.50;;;;;;4957284;28;20066;-77
2022/05/24 02:09:59;;;;;;;14.07;8.73;;;14.10;95.70;;;;;;4967428;28;20247;-77
2022/05/24 02:12:38;;;;;;;10.98;8.32;;;14.00;95.80;;;;;;4961813;28;20592;-77
2022/05/24 02:15:17;;;;;;;12.48;9.00;;;14.00;95.90;;;;;;4971713;28;20035;-77
2022/05/24 02:18:09;;;;;;;12.18;9.15;;;14.00;95.80;;;;;;4978498;28;20031;-77
2022/05/24 02:20:49;;;;;;;13.70;9.13;;;14.00;95.70;;;;;;4973559;28;20046;-77
2022/05/24 02:23:17;;;;;;;13.90;8.90;;;14.00;95.70;;;;;;4969816;28;20086;-77
2022/05/24 02:26:11;;;;;;;12.27;9.18;;;14.00;95.70;;;;;;4975149;28;20034;-77
2022/05/24 02:29:34;;;;;;;;;;;14.00;95.80;;;;;;4974595;28;20061;-77
2022/05/24 02:32:02;;;;;;;13.13;8.70;;;14.00;95.70;;;;;;4974797;28;20524;-77
2022/05/24 02:34:27;;;;;;;13.85;9.93;;;13.90;95.60;;;;;;4957981;28;20098;-77
2022/05/24 02:36:53;;;;;;;12.65;10.43;;;14.00;95.70;;;;;;4963514;28;20038;-77
2022/05/24 02:39:25;;;;;;;15.02;10.23;;;14.00;95.60;;;;;;4977397;28;20130;-77
2022/05/24 02:41:53;;;;;;;13.65;9.32;;;13.90;95.40;;;;;;4981399;28;20039;-77
2022/05/24 02:44:21;;;;;;;13.55;9.35;;;13.90;95.40;;;;;;4966106;28;20456;-77
2022/05/24 02:46:50;;;;;;;13.32;9.13;;;13.90;95.40;;;;;;4966950;28;20027;-77
2022/05/24 02:49:28;;;;;;;11.45;8.90;;;13.80;95.30;;;;;;4982744;28;20051;-77
2022/05/24 02:52:07;;;;;;;12.45;9.40;;;13.80;95.30;;;;;;4953443;28;20039;-77
2022/05/24 02:54:35;;;;;;;16.60;10.60;;;13.80;95.40;;;;;;4970691;28;20066;-77
2022/05/24 02:57:05;;;;;;;16.27;10.18;;;13.90;95.40;;;;;;4958604;28;20519;-77
2022/05/24 02:59:54;;;;;;;16.88;12.35;;;13.80;95.50;;;;;;4967315;28;20069;-77
2022/05/24 03:02:25;;;;;;;17.05;12.00;;;13.80;95.50;;;;;;4973732;28;20027;-77
2022/05/24 03:04:56;;;;;;;17.63;12.73;;;13.80;95.60;;;;;;4938572;28;20047;-77
2022/05/24 03:10:39;;;;;;;17.65;13.52;;;13.80;95.70;;;;;;4968709;28;20060;-77
2022/05/24 03:16:17;;;;;;;20.23;14.55;;;13.80;95.80;;;;;;4961800;28;20050;-77
2022/05/24 03:18:50;;;;;;;17.33;13.70;;;13.80;95.80;;;;;;4967168;28;20042;-77
2022/05/24 03:21:41;;;;;;;18.63;14.40;;;13.80;95.80;;;;;;4969123;28;20121;-77
2022/05/24 03:24:10;;;;;;;18.13;12.60;;;13.90;96.00;;;;;;4962818;28;20042;-77
2022/05/24 03:26:40;;;;;;;16.35;12.77;;;13.80;96.00;;;;;;4948962;28;20042;-77
2022/05/24 03:29:16;;;;;;;16.02;13.15;;;13.80;95.90;;;;;;4954534;28;20051;-77
2022/05/24 03:32:06;;;;;;;16.25;11.68;;;13.80;95.90;;;;;;4960666;28;20035;-77
2022/05/24 03:34:43;;;;;;;15.13;10.05;;;13.80;95.80;;;;;;4963022;28;20035;-77
2022/05/24 03:37:10;;;;;;;15.27;10.07;;;13.80;95.80;;;;;;4959517;28;20062;-77
2022/05/24 03:39:39;;;;;;;12.32;8.45;;;13.90;95.80;;;;;;4980240;28;20054;-77
2022/05/24 03:42:08;;;;;;;12.80;7.70;;;13.80;95.50;;;;;;4967765;28;20048;-77
2022/05/24 03:44:38;;;;;;;12.45;6.82;;;13.70;95.40;;;;;;4967950;28;20401;-77
2022/05/24 03:47:09;;;;;;;10.23;5.43;;;13.80;95.00;;;;;;5002949;28;20033;-77
2022/05/24 03:49:37;;;;;;;10.27;5.83;;;13.80;94.60;;;;;;4968166;28;20042;-77
2022/05/24 03:52:05;;;;;;;8.55;4.90;;;13.80;94.40;;;;;;4984076;28;20320;-77
2022/05/24 03:54:32;;;;;;;7.28;5.10;;;13.80;94.30;;;;;;4997515;28;20385;-77
2022/05/24 04:00:15;;;;;;;8.45;5.20;;;13.80;94.30;;;;;;4998131;28;20096;-77
2022/05/24 04:02:42;;;;;;;8.30;5.32;;;13.80;94.30;;;;;;4984362;28;20112;-77
2022/05/24 04:05:11;;;;;;;9.00;5.95;;;13.80;94.30;;;;;;4997233;28;20039;-77
2022/05/24 04:07:43;;;;;;;8.98;5.57;;;13.80;94.30;;;;;;4975688;28;20030;-77
2022/05/24 04:10:17;;;;;;;9.23;6.07;;;13.80;94.30;;;;;;4989712;28;20045;-77
2022/05/24 04:13:15;;;;;;;8.75;6.30;;;13.80;94.20;;;;;;4984162;28;20049;-77
2022/05/24 04:15:40;;;;;;;11.15;6.13;;;13.80;94.20;;;;;;4980739;28;20129;-77
2022/05/24 04:18:06;;;;;;;8.18;6.00;;;13.80;94.10;;;;;;4979475;28;20383;-71
2022/05/24 04:20:32;;;;;;;8.57;6.72;;;13.80;93.60;;;;;;4983210;28;20370;-71
2022/05/24 04:22:57;;;;;;;10.82;6.50;;;13.80;93.50;;;;;;4991359;28;20045;-71
2022/05/24 04:25:25;;;;;;;8.32;6.10;;;13.80;93.50;;;;;;4982306;28;20113;-71
2022/05/24 04:27:50;;;;;;;8.70;5.82;;;13.80;93.60;;;;;;4987340;28;20030;-72
2022/05/24 04:30:17;;;;;;;8.93;6.93;;;13.80;93.30;;;;;;4989549;28;20048;-73
2022/05/24 04:32:43;;;;;;;8.85;6.22;;;13.80;93.30;;;;;;4986455;28;20366;-73
2022/05/24 04:35:09;;;;;;;11.73;6.53;;;13.80;93.20;;;;;;4989696;28;20026;-73
2022/05/24 04:37:34;;;;;;;11.35;6.13;;;13.70;93.30;;;;;;4992705;28;20034;-73
2022/05/24 04:40:00;;;;;;;9.30;5.72;;;13.70;93.80;;;;;;4987733;28;20496;-74
2022/05/24 04:42:25;;;;;;;8.57;6.35;;;13.70;93.70;;;;;;5000500;28;20069;-73
2022/05/24 04:44:57;;;;;;;8.45;6.45;;;13.60;93.80;;;;;;4994083;28;20133;-73
2022/05/24 04:47:25;;;;;;;9.88;6.30;;;13.70;93.80;;;;;;4992295;28;20037;-73
2022/05/24 04:49:56;;;;;;;7.95;5.95;;;13.70;93.90;;;;;;4992231;28;20062;-73
2022/05/24 04:52:25;;;;;;;8.73;6.40;;;13.80;94.10;;;;;;4988317;28;20037;-74
2022/05/24 04:54:52;;;;;;;8.23;6.10;;;13.60;93.90;;;;;;4992067;28;20030;-74
2022/05/24 04:57:18;;;;;;;10.35;6.60;;;13.70;93.90;;;;;;4985437;28;20045;-73
2022/05/24 04:59:44;;;;;;;12.88;6.55;;;13.60;93.90;;;;;;4984217;28;20022;-76
2022/05/24 05:02:09;;;;;;;9.38;6.38;;;13.60;94.00;;;;;;4978257;28;20546;-76
2022/05/24 05:04:36;;;;;;;7.93;5.95;;;13.60;94.10;;;;;;4994051;28;20034;-73
2022/05/24 05:07:02;;;;;;;11.15;7.38;;;13.70;94.30;;;;;;4986545;28;20283;-73
2022/05/24 05:09:34;;;;;;;10.65;7.07;;;13.80;94.20;;;;;;4983064;28;20042;-73
2022/05/24 05:12:08;;;;;;;9.88;6.65;;;13.90;94.30;;;;;;4985975;28;20049;-73
2022/05/24 05:14:35;;;;;;;8.45;6.25;;;14.00;94.30;;;;;;4989061;28;20393;-73
2022/05/24 05:17:01;;;;;;;10.25;6.28;;;14.20;93.80;;;;;;4989139;28;20117;-73
2022/05/24 05:19:28;;;;;;;10.38;7.22;;;14.40;93.20;;;;;;4986861;28;20030;-76
2022/05/24 05:21:54;;;;;;;8.23;6.32;;;14.50;92.50;;;;;;4987847;28;20030;-74
2022/05/24 05:24:19;;;;;;;9.82;6.07;;;14.60;91.90;;;;;;4984525;28;20402;-73
2022/05/24 05:26:45;;;;;;;9.30;6.18;;;14.80;91.60;;;;;;4987627;28;20048;-76
2022/05/24 05:29:10;;;;;;;10.77;6.47;;;14.80;91.00;;;;;;4985866;28;20041;-77
2022/05/24 05:31:36;;;;;;;8.25;5.97;;;15.00;90.70;;;;;;4985305;28;20030;-77
2022/05/24 05:34:02;;;;;;;8.68;6.03;;;15.00;90.40;;;;;;4991707;28;20037;-76
2022/05/24 05:36:29;;;;;;;9.07;5.68;;;14.90;89.60;;;;;;4988750;28;20038;-73
2022/05/24 05:38:55;;;;;;;8.95;5.72;;;14.80;89.60;;;;;;4969709;28;20022;-76
2022/05/24 05:41:23;;;;;;;9.25;5.70;;;14.90;89.90;;;;;;4987042;28;20057;-75
2022/05/24 05:43:49;;;;;;;8.57;5.97;;;14.90;89.40;;;;;;4988374;28;20105;-76
2022/05/24 05:46:17;;;;;;;8.82;5.97;;;14.80;89.10;;;;;;4988656;28;20113;-75
2022/05/24 05:48:43;;;;;;;9.18;5.65;;;14.80;89.60;;;;;;4994548;28;20034;-75
2022/05/24 05:51:11;;;;;;;7.68;5.35;;;14.90;90.10;;;;;;4987676;28;20030;-75
2022/05/24 05:53:37;;;;;;;11.30;6.05;;;14.90;89.90;;;;;;4987463;28;20038;-75
2022/05/24 05:56:03;;;;;;;8.45;5.38;;;15.00;89.80;;;;;;4986815;28;20133;-76
2022/05/24 05:58:30;;;;;;;7.57;5.25;;;15.00;89.80;;;;;;4987933;28;20034;-75
2022/05/24 06:00:55;;;;;;;7.95;5.57;;;14.80;89.60;;;;;;4986347;28;20034;-75
2022/05/24 06:03:21;;;;;;;8.57;5.68;;;14.90;90.10;;;;;;4994807;28;20089;-75
2022/05/24 06:05:53;;;;;;;8.38;6.20;;;14.90;90.00;;;;;;4983505;28;20046;-75
2022/05/24 06:08:19;;;;;;;9.68;5.85;;;14.90;89.80;;;;;;4997288;28;20548;-76
2022/05/24 06:10:45;;;;;;;11.07;5.53;;;14.90;89.90;;;;;;4987207;28;20117;-76
2022/05/24 06:13:11;;;;;;;8.38;5.28;;;14.80;89.80;;;;;;4990614;28;20038;-77
2022/05/24 06:15:37;;;;;;;8.82;5.15;;;14.70;89.50;;;;;;4978190;28;20030;-73
2022/05/24 06:18:04;;;;;;;8.35;6.38;;;14.70;89.80;;;;;;4984143;28;20529;-75
2022/05/24 06:20:31;;;;;;;8.30;5.43;;;14.80;89.90;;;;;;4986418;28;20466;-75
2022/05/24 06:22:58;;;;;;;8.93;5.72;;;14.80;89.80;;;;;;4979064;28;20033;-75
2022/05/24 06:25:25;;;;;;;8.85;6.28;;;14.80;89.80;;;;;;4984675;28;20035;-76
2022/05/24 06:27:52;;;;;;;10.18;6.05;;;14.80;89.50;;;;;;4986733;28;20030;-77
2022/05/24 06:30:20;;;;;;;10.73;6.00;;;14.80;89.40;;;;;;4979917;28;20062;-77
2022/05/24 06:32:46;;;;;;;8.85;6.32;;;14.90;89.80;;;;;;4968160;28;20365;-77
2022/05/24 06:35:12;;;;;;;9.07;6.93;;;15.10;89.10;;;;;;4987233;28;20136;-76
2022/05/24 06:37:37;;;;;;;11.75;6.72;;;15.10;89.30;;;;;;4986476;28;20154;-76
2022/05/24 06:40:04;;;;;;;10.55;7.15;;;15.20;88.10;;;;;;4983893;28;20149;-78
2022/05/24 06:42:29;;;;;;;9.40;6.45;;;15.50;87.90;;;;;;4987074;28;20026;-78
2022/05/24 06:44:56;;;;;;;8.60;6.03;;;15.80;87.00;;;;;;4988055;28;20030;-78
2022/05/24 06:47:21;;;;;;;10.00;7.07;;;16.00;87.00;;;;;;4983426;28;20031;-77
2022/05/24 06:49:47;;;;;;;12.23;6.95;;;15.80;85.60;;;;;;4985133;28;20061;-77
2022/05/24 06:52:15;;;;;;;11.68;7.28;;;15.70;86.30;;;;;;4982905;28;20041;-76
2022/05/24 06:54:40;;;;;;;10.02;6.55;;;15.90;86.00;;;;;;4987708;28;20033;-76
2022/05/24 06:57:06;;;;;;;11.18;7.38;;;16.00;85.50;;;;;;4984644;28;20043;-77
2022/05/24 07:02:25;;;;;;;8.65;6.28;;;15.80;86.00;;;;;;4986520;28;20041;-77
2022/05/24 07:05:03;;;;;;;10.27;7.15;;;15.70;86.20;;;;;;4968261;28;20393;-76
2022/05/24 07:07:30;;;;;;;9.52;7.13;;;15.60;86.30;;;;;;4986494;28;20041;-77
2022/05/24 07:09:56;;;;;;;10.80;6.82;;;15.60;86.10;;;;;;4985690;28;20030;-77
2022/05/24 07:12:23;;;;;;;11.15;6.32;;;15.70;86.70;;;;;;4986808;28;20102;-76
2022/05/24 07:14:49;;;;;;;11.15;7.28;;;15.80;86.00;;;;;;4983137;28;20113;-77
2022/05/24 07:17:17;;;;;;;10.13;7.00;;;16.20;86.30;;;;;;4994459;28;20413;-76
2022/05/24 07:19:43;;;;;;;11.43;6.88;;;16.40;85.20;;;;;;4975969;28;20065;-77
2022/05/24 07:22:08;;;;;;;10.02;6.45;;;17.00;86.00;;;;;;4987867;28;20454;-76
2022/05/24 07:24:34;;;;;;;11.05;6.60;;;16.90;83.20;;;;;;4985778;28;20026;-77
2022/05/24 07:27:01;;;;;;;8.35;6.72;;;16.70;82.90;;;;;;4986724;28;20417;-77
2022/05/24 07:29:26;;;;;;;11.05;7.03;;;16.80;83.30;;;;;;4985846;28;20027;-77
2022/05/24 07:31:52;;;;;;;10.20;7.03;;;16.90;83.90;;;;;;4991061;28;20031;-77
2022/05/24 07:34:19;;;;;;;12.50;7.50;;;16.70;83.90;;;;;;4990384;28;20080;-77
2022/05/24 07:36:45;;;;;;;11.40;7.55;;;16.60;84.50;;;;;;4989833;28;20038;-77
2022/05/24 07:39:11;;;;;;;10.63;7.88;;;16.60;83.90;;;;;;4980573;28;20555;-77
2022/05/24 07:47:06;;;;;;;13.10;8.57;;;16.50;83.10;;;;;;4976487;28;20053;-79
2022/05/24 07:49:33;;;;;;;15.80;9.23;;;16.60;83.10;;;;;;4990898;28;20531;-77
2022/05/24 07:51:58;;;;;;;10.30;8.20;;;16.70;83.10;;;;;;4981882;28;20053;-76
2022/05/24 07:54:24;;;;;;;12.98;8.65;;;16.50;82.40;;;;;;4995813;28;20058;-77
2022/05/24 07:56:50;;;;;;;13.35;8.90;;;16.50;82.40;;;;;;4985327;28;20026;-75
2022/05/24 07:59:15;;;;;;;10.68;8.32;;;16.50;82.80;;;;;;4986696;28;20042;-76
2022/05/24 08:01:41;;;;;;;12.32;8.60;;;16.70;83.70;;;;;;4992598;28;20072;-76
2022/05/24 08:04:06;;;;;;;13.65;7.80;;;16.90;83.50;;;;;;4985103;28;20428;-77
2022/05/24 08:06:32;;;;;;;12.10;9.13;;;17.30;83.60;;;;;;4987434;28;20605;-78
2022/05/24 08:08:58;;;;;;;13.43;8.45;;;17.00;82.00;;;;;;4986551;28;20469;-75
2022/05/24 08:11:23;;;;;;;13.93;9.13;;;17.00;82.20;;;;;;4980578;28;20031;-78
2022/05/24 08:13:49;;;;;;;12.48;8.63;;;16.90;82.10;;;;;;4983533;28;20038;-77
2022/05/24 08:16:14;;;;;;;11.77;8.20;;;16.70;81.40;;;;;;4984636;28;20054;-77
2022/05/24 08:18:40;;;;;;;11.30;8.23;;;16.90;82.00;;;;;;4994297;28;20549;-76
2022/05/24 08:21:06;;;;;;;11.02;8.20;;;16.80;81.30;;;;;;4985092;28;20377;-77
2022/05/24 08:23:32;;;;;;;13.32;8.57;;;16.70;82.40;;;;;;4966103;28;20034;-77
2022/05/24 08:25:58;;;;;;;11.50;8.23;;;16.90;81.20;;;;;;4973207;28;20467;-76
2022/05/24 08:28:24;;;;;;;9.95;7.45;;;17.00;81.20;;;;;;4985038;28;20044;-77
2022/05/24 08:30:50;;;;;;;10.25;7.88;;;17.30;80.90;;;;;;4979958;28;20026;-76
2022/05/24 08:33:17;;;;;;;9.60;7.45;;;17.50;80.50;;;;;;4989044;28;20441;-76
2022/05/24 08:35:44;;;;;;;11.90;6.88;;;17.50;78.80;;;;;;4973856;28;20029;-76
2022/05/24 08:38:12;;;;;;;10.07;7.05;;;17.60;78.20;;;;;;4992209;28;20413;-76
2022/05/24 08:40:39;;;;;;;10.27;6.20;;;17.90;77.70;;;;;;4982853;28;20039;-77
2022/05/24 08:43:23;;;;;;;11.93;7.00;;;18.00;77.10;;;;;;4985740;28;20109;-76
2022/05/24 08:48:54;;;;;;;9.82;6.43;;;18.10;75.40;;;;;;4983665;28;20045;-76
2022/05/24 08:51:29;;;;;;;10.60;7.10;;;18.00;75.10;;;;;;4991795;28;20030;-77
2022/05/24 08:53:59;;;;;;;9.43;6.43;;;18.00;75.40;;;;;;4987863;28;20027;-76
2022/05/24 08:56:34;;;;;;;10.65;6.38;;;18.00;76.20;;;;;;4982008;28;20038;-77
2022/05/24 08:59:04;;;;;;;10.25;6.80;;;18.00;76.10;;;;;;5004515;28;20033;-77
2022/05/24 09:01:32;;;;;;;9.52;6.70;;;18.20;74.50;;;;;;4983374;28;21132;-76
2022/05/24 09:03:59;;;;;;;8.63;6.28;;;18.50;73.80;;;;;;4987125;28;20077;-73
2022/05/24 09:06:49;;;;;;;10.52;6.10;;;18.40;74.00;;;;;;4983896;28;20041;-75
2022/05/24 09:09:29;;;;;;;9.50;6.15;;;18.50;72.10;;;;;;4985741;28;20474;-76
2022/05/24 09:12:07;;;;;;;9.55;6.18;;;18.40;74.20;;;;;;4986086;28;20093;-76
2022/05/24 09:14:53;;;;;;;9.55;6.07;;;18.10;74.80;;;;;;4984740;28;20446;-76
2022/05/24 09:17:43;;;;;;;9.52;6.57;;;18.00;75.30;;;;;;4979606;28;20463;-76
2022/05/24 09:20:24;;;;;;;10.90;6.50;;;17.30;76.80;;;;;;4988993;28;20022;-76
2022/05/24 09:22:51;;;;;;;11.32;6.32;;;17.00;77.90;;;;;;4988033;28;20518;-76
2022/05/24 09:25:16;;;;;;;8.70;6.45;;;16.70;79.90;;;;;;4988302;28;20054;-76
2022/05/24 09:27:51;;;;;;;11.88;7.82;;;16.50;80.90;;;;;;4987625;28;20077;-76
2022/05/24 09:30:20;;;;;;;10.38;7.28;;;16.30;80.80;;;;;;4993141;28;20040;-76
2022/05/24 09:32:48;;;;;;;12.35;7.55;;;16.10;81.10;;;;;;4988380;28;20467;-76
2022/05/24 09:35:18;;;;;;;10.35;7.68;;;16.00;83.20;;;;;;4986115;28;20034;-76
2022/05/24 09:38:04;;;;;;;13.65;9.00;;;15.80;85.60;;;;;;4982478;28;20109;-76
2022/05/24 09:40:43;;;;;;;11.07;8.05;;;15.60;87.20;;;;;;4987253;28;20043;-76
2022/05/24 09:43:27;;;;;;;12.13;7.63;;;15.40;88.00;;;;;;4986281;28;20117;-76
2022/05/24 09:46:19;;;;;;;11.73;7.88;;;15.00;87.80;;;;;;4982531;28;20053;-77
2022/05/24 09:48:59;;;;;;;12.98;9.35;;;14.70;88.90;;;;;;4968875;28;20116;-77
2022/05/24 09:51:41;;;;;;;12.95;9.20;;;14.60;91.30;;;;;;4985698;28;20026;-76
2022/05/24 09:54:20;;;;;;;13.23;9.15;;;14.30;90.70;;;;;;4986898;28;20126;-76
2022/05/24 09:57:21;;;;;;;14.60;11.02;;;14.40;91.50;;;;;;4986909;28;20448;-76
2022/05/24 09:59:59;;;;;;;14.65;10.25;;;14.60;91.80;;;;;;4948066;28;20339;-77
2022/05/24 10:02:28;;;;;;;14.77;9.85;;;14.50;92.00;;;;;;4985906;28;20372;-76
2022/05/24 10:04:54;;;;;;;12.40;8.77;;;14.50;91.30;;;;;;4986900;28;20030;-77
2022/05/24 10:07:20;;;;;;;15.90;9.75;;;14.50;91.40;;;;;;4987055;28;20493;-76
2022/05/24 10:10:00;;;;;;;12.07;8.95;;;14.30;91.40;;;;;;4987213;28;20038;-76
2022/05/24 10:12:43;;;;;;;13.65;8.75;;;14.30;91.90;;;;;;4985430;28;20433;-76
2022/05/24 10:15:22;;;;;;;12.75;7.55;;;14.30;92.10;;;;;;4985678;28;20447;-77
2022/05/24 10:18:12;;;;;;;9.48;7.55;;;14.00;91.40;;;;;;4986744;28;20042;-77
2022/05/24 10:21:07;;;;;;;10.98;7.30;;;13.80;91.50;;;;;;4984687;28;20141;-76
2022/05/24 10:23:40;;;;;;;10.73;7.30;;;13.60;92.20;;;;;;4986847;28;20029;-76
2022/05/24 10:26:12;;;;;;;9.27;7.28;;;13.50;91.90;;;;;;4980410;28;20030;-77
2022/05/24 10:28:48;;;;;;;13.98;7.25;;;13.60;92.70;;;;;;4983764;28;20165;-77
2022/05/24 10:31:48;;;;;;;10.25;6.60;;;13.60;92.60;;;;;;4982179;28;20023;-76
2022/05/24 10:38:19;;;;;;;12.23;6.55;;;13.50;92.00;;;;;;4991395;28;20400;-77
2022/05/24 10:41:12;;;;;;;11.63;7.63;;;13.60;92.00;;;;;;4934149;28;20050;-77
2022/05/24 10:44:01;;;;;;;14.10;7.80;;;13.90;92.10;;;;;;4985366;28;20337;-77
2022/05/24 10:46:55;;;;;;;11.90;7.28;;;14.40;92.90;;;;;;4989460;28;20461;-77
2022/05/24 10:49:50;;;;;;;11.65;7.68;;;14.40;91.50;;;;;;4986845;28;20343;-76
2022/05/24 10:52:22;;;;;;;10.77;7.30;;;14.60;91.10;;;;;;4986863;28;20027;-76
2022/05/24 10:55:11;;;;;;;10.07;6.85;;;15.00;91.30;;;;;;4986301;28;20037;-76
2022/05/24 10:57:51;;;;;;;12.40;7.03;;;14.90;90.50;;;;;;4986753;28;20038;-76
2022/05/24 11:00:23;;;;;;;11.02;6.25;;;14.90;90.50;;;;;;4985643;28;20438;-76
2022/05/24 11:03:01;;;;;;;9.40;6.78;;;14.80;89.80;;;;;;4966417;28;20026;-76
2022/05/24 11:05:35;;;;;;;11.02;6.22;;;14.90;89.60;;;;;;4981962;28;20065;-77
2022/05/24 11:08:26;;;;;;;8.80;6.28;;;14.70;88.60;;;;;;4986348;28;20045;-76
2022/05/24 11:10:54;;;;;;;8.63;6.05;;;14.80;89.10;;;;;;4985654;28;20498;-76
2022/05/24 11:13:42;;;;;;;12.15;6.57;;;14.80;89.30;;;;;;4986318;28;20481;-76
2022/05/24 11:16:15;;;;;;;9.05;6.03;;;14.90;89.90;;;;;;4998574;28;20389;-76
2022/05/24 11:18:41;;;;;;;10.18;6.82;;;14.90;88.70;;;;;;4988401;28;20034;-76
2022/05/24 11:21:32;;;;;;;9.00;6.28;;;14.80;88.50;;;;;;4997779;28;20141;-76
2022/05/24 11:24:09;;;;;;;8.88;6.80;;;15.40;89.30;;;;;;4986251;28;20117;-76
2022/05/24 11:26:39;;;;;;;10.43;6.80;;;15.40;87.40;;;;;;4985883;28;20035;-76
2022/05/24 11:29:28;;;;;;;9.13;6.68;;;15.60;86.70;;;;;;4993201;28;20021;-76
2022/05/24 11:32:01;;;;;;;11.98;7.20;;;15.70;87.80;;;;;;5004180;28;20125;-76
2022/05/24 11:34:35;;;;;;;11.50;7.18;;;16.20;87.10;;;;;;4996610;28;20032;-77
2022/05/24 11:37:25;;;;;;;9.55;6.05;;;16.50;85.30;;;;;;4986133;28;20384;-76
2022/05/24 11:39:53;;;;;;;10.48;5.90;;;16.40;84.20;;;;;;4985881;28;20054;-76
2022/05/24 11:42:21;;;;;;;13.73;6.80;;;16.10;85.00;;;;;;4986050;28;20072;-76
2022/05/24 11:44:48;;;;;;;7.72;5.72;;;16.10;85.80;;;;;;4989921;28;20078;-77
2022/05/24 11:47:35;;;;;;;7.43;5.35;;;16.10;84.30;;;;;;4983960;28;20042;-76
2022/05/24 11:50:06;;;;;;;8.98;5.80;;;16.10;84.50;;;;;;4985451;28;20037;-76
2022/05/24 11:53:00;;;;;;;9.05;5.60;;;16.10;84.40;;;;;;4985863;28;20038;-76
2022/05/24 11:55:49;;;;;;;8.57;5.10;;;16.60;84.80;;;;;;4985947;28;20096;-76
2022/05/24 11:58:21;;;;;;;10.18;5.25;;;17.10;81.70;;;;;;4985760;28;20125;-76
2022/05/24 12:01:15;;;;;;;7.38;4.57;;;17.10;80.70;;;;;;4985611;28;20030;-76
2022/05/24 12:10:20;;;;;;;6.22;3.65;;;17.20;79.30;;;;;;4985702;28;20146;-76
2022/05/24 12:12:49;;;;;;;6.30;3.83;;;17.80;77.60;;;;;;4938859;28;20490;-76
2022/05/24 12:15:20;;;;;;;8.73;3.83;;;17.60;75.90;;;;;;4986308;28;20022;-77
2022/05/24 12:17:58;;;;;;;;;;;18.20;73.70;;;;;;4963800;28;20062;-76
2022/05/24 12:20:32;;;;;;;7.47;3.58;;;18.70;74.40;;;;;;4973339;28;19933;-76
2022/05/24 12:23:07;;;;;;;4.88;2.88;;;18.00;72.30;;;;;;4985748;28;20039;-77
2022/05/24 12:26:05;;;;;;;4.45;2.72;;;17.50;74.70;;;;;;4998224;28;20055;-77
2022/05/24 12:28:36;;;;;;;5.70;3.40;;;17.10;75.60;;;;;;4981745;28;20456;-76
2022/05/24 12:31:07;;;;;;;7.63;3.47;;;16.70;76.30;;;;;;4984501;28;20046;-76
2022/05/24 12:33:55;;;;;;;8.40;3.20;;;16.50;77.10;;;;;;4985234;28;20031;-76
2022/05/24 12:36:39;;;;;;;6.13;3.10;;;16.30;76.20;;;;;;4987115;28;20338;-77
2022/05/24 12:39:08;;;;;;;7.63;3.42;;;16.30;77.70;;;;;;4982039;28;20031;-76
2022/05/24 12:41:38;;;;;;;7.28;3.17;;;16.40;76.70;;;;;;4986867;28;20034;-76
2022/05/24 12:44:22;;;;;;;6.50;2.92;;;16.80;77.00;;;;;;4986763;28;20038;-77
2022/05/24 12:46:52;;;;;;;4.90;3.30;;;17.20;75.10;;;;;;4987674;28;20038;-76
2022/05/24 12:49:22;;;;;;;5.05;3.08;;;18.00;72.90;;;;;;4986184;28;20027;-77
2022/05/24 12:51:52;;;;;;;5.05;2.97;;;18.40;71.10;;;;;;4987503;28;20038;-77
2022/05/24 12:54:31;;;;;;;4.90;2.50;;;19.00;69.80;;;;;;4982391;28;20046;-77
2022/05/24 12:57:06;;;;;;;5.70;2.35;;;18.60;67.60;;;;;;4988207;28;20073;-77
2022/05/24 12:59:40;;;;;;;2.78;1.92;;;17.90;68.10;;;;;;4989051;28;20430;-77
2022/05/24 13:02:38;;;;;;;3.90;2.25;;;17.80;66.90;;;;;;4981454;28;20329;-77
2022/05/24 13:05:06;;;;;;;4.50;2.35;;;19.30;63.80;;;;;;4988225;28;20026;-77
2022/05/24 13:07:59;;;;;;;7.70;2.25;;;20.80;65.40;;;;;;4988604;28;20042;-77
2022/05/24 13:10:27;;;;;;;4.88;2.20;;;20.20;61.80;;;;;;4988872;28;20049;-77
2022/05/24 13:13:14;;;;;;;5.30;2.05;;;20.60;59.20;;;;;;4987859;28;20038;-77
2022/05/24 13:15:43;;;;;;;3.00;1.90;;;21.20;59.60;;;;;;4993342;28;20125;-77
2022/05/24 13:18:32;;;;;;;3.78;1.80;;;21.60;58.20;;;;;;4969283;28;20444;-77
2022/05/24 13:21:04;;;;;;;5.18;1.88;;;21.70;56.60;;;;;;4994685;28;20120;-78
2022/05/24 13:23:37;;;;;;;2.47;1.55;;;21.00;55.40;;;;;;4980616;28;22274;-77
2022/05/24 13:26:06;;;;;;;5.82;2.40;;;20.60;58.40;;;;;;4970937;28;20032;-76
2022/05/24 13:28:41;;;;;;;1.67;1.40;;;19.50;59.40;;;;;;4988994;28;20031;-77
2022/05/24 13:34:24;;;;;;;5.28;1.67;;;21.00;58.00;;;;;;4989222;28;20481;-78
2022/05/24 13:37:01;;;;;;;3.67;1.60;;;21.20;55.10;;;;;;4992264;28;20093;-77
2022/05/24 13:39:38;;;;;;;3.20;1.60;;;21.60;54.00;;;;;;4995429;28;20045;-78
2022/05/24 13:42:09;;;;;;;3.58;1.60;;;20.10;54.90;;;;;;4988950;28;20412;-77
2022/05/24 13:44:38;;;;;;;3.38;1.60;;;20.20;57.30;;;;;;4977027;28;20052;-78
2022/05/24 13:47:26;;;;;;;3.92;1.60;;;20.50;57.60;;;;;;4988812;28;20046;-78
2022/05/24 13:49:55;;;;;;;2.88;1.55;;;21.10;55.20;;;;;;4971914;28;20132;-79
2022/05/24 13:52:50;;;;;;;3.20;1.38;;;21.20;53.30;;;;;;5002321;28;20080;-79